createdAt,value
2023-03-22T00:00:00.007Z,50.866879
2023-03-22T00:01:00.000Z,50.866863
2023-03-22T00:02:00.000Z,50.866840
2023-03-22T00:03:00.072Z,50.866859
2023-03-22T00:04:00.018Z,50.866852
2023-03-22T00:04:59.976Z,50.866867
2023-03-22T00:05:59.955Z,50.866852
2023-03-22T00:06:59.986Z,50.866852
2023-03-22T00:07:59.934Z,50.866844
2023-03-22T00:08:59.947Z,50.866852
2023-03-22T00:09:59.932Z,50.866856
2023-03-22T00:10:59.941Z,50.866859
2023-03-22T00:11:59.924Z,50.866871
2023-03-22T00:12:59.896Z,50.866848
2023-03-22T00:13:59.884Z,50.866833
2023-03-22T00:14:59.882Z,50.866802
2023-03-22T00:15:59.998Z,50.866814
2023-03-22T00:16:59.873Z,50.866798
2023-03-22T00:17:59.857Z,50.866810
2023-03-22T00:18:59.879Z,50.866844
2023-03-22T00:19:59.843Z,50.866825
2023-03-22T00:21:00.664Z,50.866848
2023-03-22T00:21:59.842Z,50.866848
2023-03-22T00:27:01.368Z,50.866764
2023-03-22T00:28:01.350Z,50.866760
2023-03-22T00:29:02.160Z,50.866753
2023-03-22T00:30:01.336Z,50.866730
2023-03-22T00:31:01.369Z,50.866726
2023-03-22T00:32:01.313Z,50.866734
2023-03-22T00:33:01.308Z,50.866730
2023-03-22T00:34:01.310Z,50.866734
2023-03-22T00:35:01.309Z,50.866714
2023-03-22T00:36:02.117Z,50.866718
2023-03-22T00:37:01.278Z,50.866714
2023-03-22T00:38:01.283Z,50.866718
2023-03-22T00:39:01.272Z,50.866730
2023-03-22T00:40:01.261Z,50.866722
2023-03-22T00:41:01.256Z,50.866734
2023-03-22T00:42:01.239Z,50.866707
2023-03-22T00:43:01.243Z,50.866718
2023-03-22T00:44:01.221Z,50.866730
2023-03-22T00:45:01.235Z,50.866749
2023-03-22T00:46:01.237Z,50.866730
2023-03-22T00:47:01.213Z,50.866737
2023-03-22T00:48:01.321Z,50.866730
2023-03-22T00:49:01.182Z,50.866730
2023-03-22T00:50:01.183Z,50.866734
2023-03-22T00:51:01.191Z,50.866718
2023-03-22T00:52:01.171Z,50.866714
2023-03-22T00:53:01.160Z,50.866756
2023-03-22T00:54:01.160Z,50.866741
2023-03-22T00:55:01.156Z,50.866734
2023-03-22T00:56:01.140Z,50.866730
2023-03-22T00:57:01.127Z,50.866730
2023-03-22T00:58:01.124Z,50.866718
2023-03-22T00:59:01.109Z,50.866745
2023-03-22T01:00:01.115Z,50.866737
2023-03-22T01:01:01.129Z,50.866730
2023-03-22T01:02:01.106Z,50.866756
2023-03-22T01:03:01.090Z,50.866749
2023-03-22T01:04:01.126Z,50.866714
2023-03-22T01:05:01.074Z,50.866745
2023-03-22T01:06:01.104Z,50.866768
2023-03-22T01:07:01.061Z,50.866768
2023-03-22T01:08:01.049Z,50.866737
2023-03-22T01:09:01.735Z,50.866737
2023-03-22T01:10:01.026Z,50.866741
2023-03-22T01:11:01.044Z,50.866791
2023-03-22T01:12:01.036Z,50.866798
2023-03-22T01:13:01.029Z,50.866745
2023-03-22T01:14:00.993Z,50.866726
2023-03-22T01:15:00.998Z,50.866798
2023-03-22T01:16:00.995Z,50.866676
2023-03-22T01:17:00.980Z,50.866730
2023-03-22T01:18:00.984Z,50.866768
2023-03-22T01:19:00.980Z,50.866730
2023-03-22T01:20:00.985Z,50.866745
2023-03-22T01:21:00.978Z,50.866688
2023-03-22T01:22:00.949Z,50.866734
2023-03-22T01:23:00.941Z,50.866764
2023-03-22T01:24:00.931Z,50.866680
2023-03-22T01:25:00.918Z,50.866661
2023-03-22T01:26:00.914Z,50.866673
2023-03-22T01:27:00.905Z,50.866726
2023-03-22T01:28:00.899Z,50.866669
2023-03-22T01:29:00.887Z,50.866920
2023-03-22T01:30:00.868Z,50.867027
2023-03-22T01:31:00.881Z,50.867035
2023-03-22T01:32:00.852Z,50.866932
2023-03-22T01:33:00.869Z,50.866745
2023-03-22T01:34:00.840Z,50.866688
2023-03-22T01:35:00.845Z,50.866657
2023-03-22T01:36:00.869Z,50.866673
2023-03-22T01:37:00.829Z,50.866623
2023-03-22T01:38:00.814Z,50.866684
2023-03-22T01:39:00.811Z,50.866802
2023-03-22T01:40:00.808Z,50.866810
2023-03-22T01:41:00.804Z,50.866764
2023-03-22T01:42:00.787Z,50.866737
2023-03-22T01:43:00.773Z,50.866772
2023-03-22T01:44:00.803Z,50.866833
2023-03-22T01:45:00.794Z,50.866741
2023-03-22T01:46:00.916Z,50.866768
2023-03-22T01:47:00.767Z,50.866772
2023-03-22T01:48:00.773Z,50.866756
2023-03-22T01:49:00.785Z,50.866863
2023-03-22T01:50:00.740Z,50.866810
2023-03-22T01:51:00.727Z,50.866764
2023-03-22T01:52:00.701Z,50.866768
2023-03-22T01:53:00.695Z,50.866764
2023-03-22T01:54:00.685Z,50.866795
2023-03-22T01:55:00.695Z,50.866821
2023-03-22T01:56:00.707Z,50.866756
2023-03-22T01:57:00.680Z,50.866730
2023-03-22T01:58:00.668Z,50.866909
2023-03-22T01:59:00.667Z,50.866806
2023-03-22T02:00:00.647Z,50.866936
2023-03-22T02:01:00.738Z,50.866871
2023-03-22T02:02:00.636Z,50.866817
2023-03-22T02:03:00.776Z,50.866810
2023-03-22T02:04:00.626Z,50.866768
2023-03-22T02:05:00.627Z,50.866695
2023-03-22T02:06:00.637Z,50.866703
2023-03-22T02:07:00.611Z,50.866787
2023-03-22T02:08:00.586Z,50.866871
2023-03-22T02:09:00.581Z,50.866829
2023-03-22T02:10:00.585Z,50.866764
2023-03-22T02:11:00.585Z,50.866760
2023-03-22T02:12:00.577Z,50.866753
2023-03-22T02:13:00.553Z,50.866837
2023-03-22T02:14:00.540Z,50.866806
2023-03-22T02:15:00.526Z,50.866779
2023-03-22T02:16:00.572Z,50.866776
2023-03-22T02:17:00.514Z,50.866802
2023-03-22T02:18:00.510Z,50.866879
2023-03-22T02:19:00.514Z,50.866772
2023-03-22T02:20:00.495Z,50.866787
2023-03-22T02:21:02.411Z,50.866749
2023-03-22T02:22:01.475Z,50.866837
2023-03-22T02:23:00.479Z,50.866821
2023-03-22T02:24:00.465Z,50.866787
2023-03-22T02:25:00.455Z,50.866806
2023-03-22T02:26:00.766Z,50.866783
2023-03-22T02:27:00.458Z,50.866768
2023-03-22T02:28:00.436Z,50.866833
2023-03-22T02:29:00.424Z,50.866779
2023-03-22T02:30:00.411Z,50.866783
2023-03-22T02:31:00.454Z,50.866837
2023-03-22T02:32:00.416Z,50.866821
2023-03-22T02:33:00.400Z,50.866772
2023-03-22T02:34:00.400Z,50.866795
2023-03-22T02:35:00.378Z,50.866776
2023-03-22T02:36:00.393Z,50.866760
2023-03-22T02:37:00.354Z,50.866875
2023-03-22T02:38:00.349Z,50.866859
2023-03-22T02:39:00.355Z,50.866867
2023-03-22T02:40:00.349Z,50.866837
2023-03-22T02:41:00.362Z,50.866817
2023-03-22T02:42:00.322Z,50.866829
2023-03-22T02:43:00.315Z,50.866802
2023-03-22T02:44:01.312Z,50.866791
2023-03-22T02:45:00.291Z,50.866810
2023-03-22T02:46:00.293Z,50.866806
2023-03-22T02:47:00.358Z,50.866802
2023-03-22T02:48:00.301Z,50.866798
2023-03-22T02:49:00.265Z,50.866787
2023-03-22T02:50:00.263Z,50.866802
2023-03-22T02:51:00.251Z,50.866772
2023-03-22T02:52:00.242Z,50.866833
2023-03-22T02:53:00.232Z,50.866756
2023-03-22T02:54:00.216Z,50.866837
2023-03-22T02:55:00.231Z,50.866806
2023-03-22T02:56:00.214Z,50.866802
2023-03-22T02:57:00.212Z,50.866817
2023-03-22T02:58:00.205Z,50.866856
2023-03-22T02:59:00.205Z,50.866886
2023-03-22T03:00:00.207Z,50.866844
2023-03-22T03:01:00.183Z,50.866817
2023-03-22T03:02:00.300Z,50.866821
2023-03-22T03:03:00.203Z,50.866829
2023-03-22T03:04:00.203Z,50.866867
2023-03-22T03:05:00.153Z,50.866863
2023-03-22T03:06:00.134Z,50.866856
2023-03-22T03:07:00.168Z,50.866795
2023-03-22T03:08:00.126Z,50.866867
2023-03-22T03:09:00.110Z,50.866875
2023-03-22T03:10:00.134Z,50.866886
2023-03-22T03:11:00.099Z,50.866882
2023-03-22T03:12:00.125Z,50.866894
2023-03-22T03:13:00.135Z,50.866898
2023-03-22T03:14:00.113Z,50.866894
2023-03-22T03:15:00.060Z,50.866879
2023-03-22T03:16:00.070Z,50.866837
2023-03-22T03:17:00.045Z,50.866844
2023-03-22T03:18:00.038Z,50.866840
2023-03-22T03:19:00.051Z,50.866859
2023-03-22T03:20:00.026Z,50.866871
2023-03-22T03:21:00.010Z,50.866848
2023-03-22T03:22:00.003Z,50.866844
2023-03-22T03:22:59.992Z,50.866833
2023-03-22T03:23:59.997Z,50.866859
2023-03-22T03:24:59.974Z,50.866909
2023-03-22T03:25:59.982Z,50.866882
2023-03-22T03:26:59.968Z,50.866901
2023-03-22T03:27:59.954Z,50.866871
2023-03-22T03:28:59.956Z,50.866879
2023-03-22T03:29:59.938Z,50.866859
2023-03-22T03:30:59.938Z,50.866829
2023-03-22T03:32:00.021Z,50.866844
2023-03-22T03:32:59.923Z,50.866844
2023-03-22T03:33:59.914Z,50.866856
2023-03-22T03:34:59.897Z,50.866806
2023-03-22T03:35:59.891Z,50.866833
2023-03-22T03:36:59.892Z,50.866886
2023-03-22T03:37:59.883Z,50.866821
2023-03-22T03:38:59.907Z,50.866840
2023-03-22T03:39:59.868Z,50.866844
2023-03-22T03:40:59.856Z,50.866810
2023-03-22T03:41:59.851Z,50.866798
2023-03-22T03:42:59.848Z,50.866753
2023-03-22T03:43:59.849Z,50.866825
2023-03-22T03:44:59.830Z,50.866840
2023-03-22T03:45:59.937Z,50.866779
2023-03-22T03:46:59.822Z,50.866783
2023-03-22T03:47:59.817Z,50.866795
2023-03-22T03:48:59.797Z,50.866817
2023-03-22T03:49:59.814Z,50.866802
2023-03-22T03:51:00.776Z,50.866810
2023-03-22T03:52:00.779Z,50.866802
2023-03-22T03:52:59.779Z,50.866802
2023-03-22T03:53:59.770Z,50.866814
2023-03-22T03:54:59.758Z,50.866802
2023-03-22T03:55:59.761Z,50.866783
2023-03-22T03:57:00.197Z,50.866787
2023-03-22T03:57:59.757Z,50.866779
2023-03-22T03:58:59.732Z,50.866867
2023-03-22T03:59:59.733Z,50.866844
2023-03-22T04:00:59.717Z,50.866764
2023-03-22T04:01:59.728Z,50.866798
2023-03-22T04:02:59.697Z,50.866692
2023-03-22T04:03:59.728Z,50.866993
2023-03-22T04:04:59.690Z,50.866928
2023-03-22T04:05:59.671Z,50.867088
2023-03-22T04:06:59.677Z,50.867050
2023-03-22T04:07:59.679Z,50.866936
2023-03-22T04:08:59.658Z,50.866955
2023-03-22T04:09:59.651Z,50.866966
2023-03-22T04:10:59.648Z,50.866966
2023-03-22T04:11:59.628Z,50.866867
2023-03-22T04:12:59.615Z,50.866863
2023-03-22T04:13:59.615Z,50.866779
2023-03-22T04:14:59.623Z,50.866879
2023-03-22T04:15:59.583Z,50.866932
2023-03-22T04:17:00.659Z,50.866760
2023-03-22T04:17:59.588Z,50.866825
2023-03-22T04:18:59.586Z,50.866936
2023-03-22T04:19:59.568Z,50.866928
2023-03-22T04:20:59.567Z,50.866806
2023-03-22T04:21:59.581Z,50.866810
2023-03-22T04:22:59.557Z,50.866787
2023-03-22T04:23:59.549Z,50.866810
2023-03-22T04:24:59.530Z,50.866943
2023-03-22T04:25:59.527Z,50.866920
2023-03-22T04:26:59.538Z,50.866886
2023-03-22T04:27:59.519Z,50.866879
2023-03-22T04:28:59.512Z,50.866753
2023-03-22T04:29:59.522Z,50.866947
2023-03-22T04:30:59.516Z,50.866924
2023-03-22T04:31:59.472Z,50.866840
2023-03-22T04:32:59.473Z,50.867001
2023-03-22T04:33:59.460Z,50.867020
2023-03-22T04:34:59.453Z,50.866852
2023-03-22T04:35:59.446Z,50.866890
2023-03-22T04:36:59.433Z,50.866955
2023-03-22T04:37:59.464Z,50.867062
2023-03-22T04:38:59.414Z,50.867142
2023-03-22T04:39:59.416Z,50.866932
2023-03-22T04:40:59.413Z,50.866879
2023-03-22T04:41:59.381Z,50.866947
2023-03-22T04:42:59.394Z,50.866890
2023-03-22T04:43:59.383Z,50.867020
2023-03-22T04:44:59.379Z,50.867058
2023-03-22T04:45:59.413Z,50.867119
2023-03-22T04:46:59.373Z,50.867012
2023-03-22T04:47:59.404Z,50.866814
2023-03-22T04:48:59.327Z,50.866787
2023-03-22T04:49:59.326Z,50.866776
2023-03-22T04:50:59.337Z,50.866749
2023-03-22T04:51:59.318Z,50.866692
2023-03-22T04:52:59.298Z,50.866936
2023-03-22T04:53:59.297Z,50.866817
2023-03-22T04:54:59.294Z,50.866688
2023-03-22T04:55:59.286Z,50.866714
2023-03-22T04:56:59.275Z,50.866726
2023-03-22T04:57:59.257Z,50.866749
2023-03-22T04:58:59.256Z,50.866760
2023-03-22T04:59:59.238Z,50.866791
2023-03-22T05:00:59.778Z,50.866814
2023-03-22T05:01:59.331Z,50.866779
2023-03-22T05:02:59.293Z,50.866795
2023-03-22T05:03:59.212Z,50.866711
2023-03-22T05:04:59.213Z,50.866714
2023-03-22T05:05:59.207Z,50.866692
2023-03-22T05:06:59.211Z,50.866722
2023-03-22T05:07:59.178Z,50.866764
2023-03-22T05:09:00.166Z,50.866760
2023-03-22T05:09:59.166Z,50.866760
2023-03-22T05:10:59.156Z,50.866772
2023-03-22T05:11:59.159Z,50.866776
2023-03-22T05:12:59.146Z,50.866726
2023-03-22T05:13:59.137Z,50.866718
2023-03-22T05:14:59.128Z,50.866821
2023-03-22T05:15:59.209Z,50.866760
2023-03-22T05:16:59.112Z,50.866856
2023-03-22T05:17:59.103Z,50.866917
2023-03-22T05:18:59.103Z,50.866787
2023-03-22T05:19:59.082Z,50.866810
2023-03-22T05:20:59.088Z,50.866783
2023-03-22T05:21:59.068Z,50.866791
2023-03-22T05:22:59.073Z,50.866711
2023-03-22T05:23:59.060Z,50.866734
2023-03-22T05:24:59.048Z,50.866810
2023-03-22T05:25:59.042Z,50.866814
2023-03-22T05:26:59.043Z,50.866772
2023-03-22T05:27:59.036Z,50.866669
2023-03-22T05:28:59.048Z,50.866737
2023-03-22T05:29:59.019Z,50.866726
2023-03-22T05:30:59.008Z,50.866806
2023-03-22T05:31:58.990Z,50.866810
2023-03-22T05:32:58.997Z,50.866798
2023-03-22T05:33:58.978Z,50.866737
2023-03-22T05:34:58.976Z,50.866764
2023-03-22T05:35:59.035Z,50.866825
2023-03-22T05:36:58.954Z,50.866795
2023-03-22T05:37:58.966Z,50.866791
2023-03-22T05:38:58.951Z,50.866783
2023-03-22T05:39:58.964Z,50.866734
2023-03-22T05:40:58.940Z,50.866714
2023-03-22T05:41:58.918Z,50.866718
2023-03-22T05:42:58.917Z,50.866722
2023-03-22T05:43:58.906Z,50.866684
2023-03-22T05:44:58.905Z,50.866772
2023-03-22T05:45:58.895Z,50.866798
2023-03-22T05:46:58.977Z,50.866764
2023-03-22T05:47:58.933Z,50.866772
2023-03-22T05:48:58.881Z,50.866718
2023-03-22T05:49:59.789Z,50.866718
2023-03-22T05:50:58.849Z,50.866695
2023-03-22T05:51:58.855Z,50.866737
2023-03-22T05:52:58.842Z,50.866787
2023-03-22T05:53:58.832Z,50.866749
2023-03-22T05:54:58.822Z,50.866814
2023-03-22T05:55:58.834Z,50.866711
2023-03-22T05:56:58.835Z,50.866802
2023-03-22T05:57:58.820Z,50.866848
2023-03-22T05:58:58.793Z,50.866768
2023-03-22T05:59:58.804Z,50.866768
2023-03-22T06:00:58.793Z,50.866810
2023-03-22T06:01:58.844Z,50.866817
2023-03-22T06:02:58.829Z,50.866779
2023-03-22T06:03:58.759Z,50.866753
2023-03-22T06:04:58.764Z,50.866753
2023-03-22T06:05:58.740Z,50.866840
2023-03-22T06:06:58.749Z,50.866791
2023-03-22T06:07:58.734Z,50.866787
2023-03-22T06:09:10.577Z,50.866734
2023-03-22T06:10:00.706Z,50.866776
2023-03-22T06:10:58.716Z,50.866772
2023-03-22T06:11:58.721Z,50.866756
2023-03-22T06:12:58.688Z,50.866730
2023-03-22T06:13:58.685Z,50.866734
2023-03-22T06:14:59.308Z,50.866753
2023-03-22T06:15:58.761Z,50.866749
2023-03-22T06:16:58.675Z,50.866764
2023-03-22T06:17:58.666Z,50.866753
2023-03-22T06:18:58.646Z,50.866737
2023-03-22T06:19:58.673Z,50.866756
2023-03-22T06:20:58.628Z,50.866749
2023-03-22T06:21:58.622Z,50.866776
2023-03-22T06:22:58.627Z,50.866768
2023-03-22T06:23:58.612Z,50.866760
2023-03-22T06:24:58.618Z,50.866756
2023-03-22T06:25:58.594Z,50.866756
2023-03-22T06:26:58.593Z,50.866768
2023-03-22T06:27:58.594Z,50.866734
2023-03-22T06:28:58.568Z,50.866745
2023-03-22T06:29:59.337Z,50.866749
2023-03-22T06:30:58.579Z,50.866718
2023-03-22T06:31:59.305Z,50.866741
2023-03-22T06:32:58.543Z,50.866737
2023-03-22T06:33:58.523Z,50.866756
2023-03-22T06:34:58.532Z,50.866714
2023-03-22T06:35:58.533Z,50.866760
2023-03-22T06:36:58.498Z,50.866753
2023-03-22T06:37:58.493Z,50.866730
2023-03-22T06:38:58.483Z,50.866714
2023-03-22T06:39:58.501Z,50.866703
2023-03-22T06:40:58.465Z,50.866718
2023-03-22T06:41:58.464Z,50.866749
2023-03-22T06:42:59.814Z,50.866791
2023-03-22T06:43:58.446Z,50.866707
2023-03-22T06:44:59.233Z,50.866734
2023-03-22T06:45:58.558Z,50.866749
2023-03-22T06:46:58.431Z,50.866734
2023-03-22T06:47:58.434Z,50.866734
2023-03-22T06:48:58.405Z,50.866737
2023-03-22T06:49:58.386Z,50.866745
2023-03-22T06:50:58.386Z,50.866753
2023-03-22T06:51:58.376Z,50.866753
2023-03-22T06:52:58.377Z,50.866760
2023-03-22T06:53:58.609Z,50.866749
2023-03-22T06:54:58.384Z,50.866745
2023-03-22T06:55:58.369Z,50.866745
2023-03-22T06:56:58.413Z,50.866764
2023-03-22T06:57:58.334Z,50.866753
2023-03-22T06:58:58.385Z,50.866741
2023-03-22T06:59:58.356Z,50.866722
2023-03-22T07:00:58.372Z,50.866783
2023-03-22T07:01:58.287Z,50.866783
2023-03-22T07:02:58.815Z,50.866779
2023-03-22T07:03:58.296Z,50.866798
2023-03-22T07:04:58.311Z,50.866783
2023-03-22T07:05:58.268Z,50.866776
2023-03-22T07:06:59.247Z,50.866753
2023-03-22T07:07:59.245Z,50.866730
2023-03-22T07:08:58.261Z,50.866734
2023-03-22T07:09:58.240Z,50.866772
2023-03-22T07:10:58.229Z,50.866745
2023-03-22T07:11:58.239Z,50.866722
2023-03-22T07:12:58.843Z,50.866737
2023-03-22T07:13:58.217Z,50.866753
2023-03-22T07:14:58.200Z,50.866737
2023-03-22T07:15:58.274Z,50.866753
2023-03-22T07:16:58.751Z,50.866791
2023-03-22T07:17:58.160Z,50.866806
2023-03-22T07:18:58.160Z,50.866802
2023-03-22T07:19:58.153Z,50.866776
2023-03-22T07:20:58.146Z,50.866776
2023-03-22T07:21:58.139Z,50.866787
2023-03-22T07:22:58.141Z,50.866798
2023-03-22T07:23:58.186Z,50.866817
2023-03-22T07:25:00.603Z,50.866737
2023-03-22T07:25:59.112Z,50.866817
2023-03-22T07:26:58.177Z,50.866817
2023-03-22T07:27:58.820Z,50.866821
2023-03-22T07:28:58.091Z,50.866817
2023-03-22T07:29:58.177Z,50.866779
2023-03-22T07:30:58.178Z,50.866741
2023-03-22T07:31:58.987Z,50.866783
2023-03-22T07:32:58.038Z,50.866749
2023-03-22T07:33:59.058Z,50.866783
2023-03-22T07:34:58.042Z,50.866817
2023-03-22T07:35:58.070Z,50.866810
2023-03-22T07:36:58.038Z,50.866856
2023-03-22T07:37:58.047Z,50.866798
2023-03-22T07:38:58.076Z,50.866798
2023-03-22T07:39:57.996Z,50.866760
2023-03-22T07:40:58.038Z,50.866760
2023-03-22T07:41:58.086Z,50.866776
2023-03-22T07:42:58.014Z,50.866764
2023-03-22T07:44:07.943Z,50.866756
2023-03-22T07:45:00.007Z,50.866756
2023-03-22T07:45:57.972Z,50.866776
2023-03-22T07:46:58.064Z,50.866814
2023-03-22T07:47:58.002Z,50.866825
2023-03-22T07:48:57.991Z,50.866791
2023-03-22T07:49:57.955Z,50.866814
2023-03-22T07:50:57.922Z,50.866787
2023-03-22T07:51:57.915Z,50.866810
2023-03-22T07:52:57.912Z,50.866817
2023-03-22T07:53:58.940Z,50.866825
2023-03-22T07:54:57.888Z,50.866787
2023-03-22T07:55:57.896Z,50.866772
2023-03-22T07:56:57.888Z,50.866798
2023-03-22T07:57:57.877Z,50.866806
2023-03-22T07:58:57.909Z,50.866844
2023-03-22T07:59:57.882Z,50.866848
2023-03-22T08:00:57.850Z,50.866844
2023-03-22T08:01:57.904Z,50.866886
2023-03-22T08:02:57.897Z,50.866955
2023-03-22T08:03:57.886Z,50.866890
2023-03-22T08:04:57.822Z,50.866947
2023-03-22T08:05:57.808Z,50.866978
2023-03-22T08:06:57.805Z,50.866867
2023-03-22T08:07:57.827Z,50.866867
2023-03-22T08:08:57.805Z,50.866875
2023-03-22T08:09:58.428Z,50.866829
2023-03-22T08:10:58.768Z,50.866825
2023-03-22T08:11:57.790Z,50.866783
2023-03-22T08:12:57.762Z,50.866821
2023-03-22T08:13:57.786Z,50.866856
2023-03-22T08:14:57.759Z,50.866802
2023-03-22T08:15:58.420Z,50.866856
2023-03-22T08:16:58.718Z,50.866787
2023-03-22T08:17:57.722Z,50.866753
2023-03-22T08:18:57.781Z,50.866753
2023-03-22T08:19:57.713Z,50.866714
2023-03-22T08:20:57.719Z,50.866714
2023-03-22T08:21:57.712Z,50.866646
2023-03-22T08:22:57.711Z,50.866642
2023-03-22T08:23:57.689Z,50.866615
2023-03-22T08:24:57.664Z,50.866665
2023-03-22T08:25:57.668Z,50.866631
2023-03-22T08:26:57.712Z,50.866615
2023-03-22T08:27:57.647Z,50.866608
2023-03-22T08:28:57.819Z,50.866634
2023-03-22T08:29:57.652Z,50.866596
2023-03-22T08:30:57.645Z,50.866634
2023-03-22T08:31:57.710Z,50.866627
2023-03-22T08:32:57.670Z,50.866627
2023-03-22T08:33:57.602Z,50.866634
2023-03-22T08:34:58.278Z,50.866653
2023-03-22T08:35:57.618Z,50.866653
2023-03-22T08:36:57.592Z,50.866634
2023-03-22T08:37:58.789Z,50.866661
2023-03-22T08:38:57.574Z,50.866676
2023-03-22T08:39:57.612Z,50.866680
2023-03-22T08:40:58.382Z,50.866680
2023-03-22T08:41:57.543Z,50.866661
2023-03-22T08:42:58.367Z,50.866646
2023-03-22T08:43:57.560Z,50.866661
2023-03-22T08:44:57.534Z,50.866669
2023-03-22T08:45:57.646Z,50.866642
2023-03-22T08:46:57.518Z,50.866634
2023-03-22T08:47:57.575Z,50.866661
2023-03-22T08:48:57.492Z,50.866657
2023-03-22T08:49:57.471Z,50.866680
2023-03-22T08:50:57.513Z,50.866638
2023-03-22T08:51:57.490Z,50.866661
2023-03-22T08:52:57.910Z,50.866631
2023-03-22T08:53:57.487Z,50.866646
2023-03-22T08:54:58.228Z,50.866661
2023-03-22T08:55:57.442Z,50.866650
2023-03-22T08:56:57.411Z,50.866684
2023-03-22T08:57:58.416Z,50.866714
2023-03-22T08:58:57.593Z,50.866722
2023-03-22T08:59:57.450Z,50.866711
2023-03-22T09:00:57.585Z,50.866703
2023-03-22T09:01:57.506Z,50.866669
2023-03-22T09:02:57.486Z,50.866661
2023-03-22T09:03:57.442Z,50.866650
2023-03-22T09:04:57.646Z,50.866676
2023-03-22T09:05:57.391Z,50.866680
2023-03-22T09:06:57.345Z,50.866703
2023-03-22T09:08:02.564Z,50.866711
2023-03-22T09:08:59.328Z,50.866722
2023-03-22T09:09:57.916Z,50.866714
2023-03-22T09:10:57.925Z,50.866734
2023-03-22T09:11:57.316Z,50.866737
2023-03-22T09:12:57.303Z,50.866707
2023-03-22T09:13:58.873Z,50.866695
2023-03-22T09:14:57.305Z,50.866669
2023-03-22T09:15:58.270Z,50.866680
2023-03-22T09:16:57.254Z,50.866714
2023-03-22T09:17:57.250Z,50.866703
2023-03-22T09:18:57.423Z,50.866730
2023-03-22T09:20:11.143Z,50.866692
2023-03-22T09:20:59.237Z,50.866699
2023-03-22T09:21:57.888Z,50.866703
2023-03-22T09:22:57.243Z,50.866699
2023-03-22T09:23:57.247Z,50.866772
2023-03-22T09:24:57.260Z,50.866787
2023-03-22T09:25:58.788Z,50.866753
2023-03-22T09:26:58.214Z,50.866772
2023-03-22T09:27:57.170Z,50.866844
2023-03-22T09:28:57.173Z,50.866772
2023-03-22T09:29:57.199Z,50.866749
2023-03-22T09:30:57.205Z,50.866779
2023-03-22T09:31:57.142Z,50.866798
2023-03-22T09:32:57.142Z,50.866829
2023-03-22T09:33:57.156Z,50.866810
2023-03-22T09:34:57.148Z,50.866814
2023-03-22T09:35:57.170Z,50.866810
2023-03-22T09:36:58.500Z,50.866810
2023-03-22T09:37:58.104Z,50.866806
2023-03-22T09:38:57.081Z,50.866806
2023-03-22T09:39:57.066Z,50.866787
2023-03-22T09:40:57.052Z,50.866825
2023-03-22T09:41:57.054Z,50.866817
2023-03-22T09:42:57.871Z,50.866776
2023-03-22T09:43:59.883Z,50.866753
2023-03-22T09:44:57.063Z,50.866753
2023-03-22T09:45:57.091Z,50.866764
2023-03-22T09:46:57.029Z,50.866764
2023-03-22T09:47:57.859Z,50.866764
2023-03-22T09:48:57.799Z,50.866787
2023-03-22T09:49:57.045Z,50.866821
2023-03-22T09:50:57.955Z,50.866779
2023-03-22T09:51:56.983Z,50.866779
2023-03-22T09:52:56.980Z,50.866772
2023-03-22T09:53:56.967Z,50.866791
2023-03-22T09:54:56.975Z,50.866776
2023-03-22T09:55:57.971Z,50.866768
2023-03-22T09:56:56.997Z,50.866776
2023-03-22T09:57:56.974Z,50.866783
2023-03-22T09:58:56.952Z,50.866776
2023-03-22T09:59:56.914Z,50.866787
2023-03-22T10:00:57.040Z,50.866840
2023-03-22T10:01:57.223Z,50.866829
2023-03-22T10:02:56.888Z,50.866806
2023-03-22T10:03:56.890Z,50.866795
2023-03-22T10:04:57.403Z,50.866745
2023-03-22T10:05:57.429Z,50.866791
2023-03-22T10:06:56.886Z,50.866806
2023-03-22T10:07:56.854Z,50.866810
2023-03-22T10:08:56.846Z,50.866795
2023-03-22T10:09:56.846Z,50.866810
2023-03-22T10:10:56.830Z,50.866840
2023-03-22T10:11:56.920Z,50.866852
2023-03-22T10:12:56.846Z,50.866829
2023-03-22T10:13:56.833Z,50.866810
2023-03-22T10:14:56.805Z,50.866844
2023-03-22T10:15:56.816Z,50.866852
2023-03-22T10:16:56.794Z,50.866825
2023-03-22T10:17:56.787Z,50.866833
2023-03-22T10:18:57.342Z,50.866852
2023-03-22T10:19:56.795Z,50.866859
2023-03-22T10:20:56.743Z,50.866867
2023-03-22T10:21:56.749Z,50.866867
2023-03-22T10:22:56.752Z,50.866859
2023-03-22T10:23:56.756Z,50.866882
2023-03-22T10:24:56.732Z,50.866886
2023-03-22T10:25:56.735Z,50.866875
2023-03-22T10:26:56.732Z,50.866856
2023-03-22T10:27:58.938Z,50.866894
2023-03-22T10:28:57.683Z,50.866875
2023-03-22T10:29:56.701Z,50.866848
2023-03-22T10:30:56.703Z,50.866802
2023-03-22T10:31:56.762Z,50.866783
2023-03-22T10:32:58.100Z,50.866776
2023-03-22T10:33:57.682Z,50.866772
2023-03-22T10:34:56.676Z,50.866753
2023-03-22T10:35:56.679Z,50.866814
2023-03-22T10:36:56.688Z,50.866772
2023-03-22T10:37:56.624Z,50.866749
2023-03-22T10:38:57.336Z,50.866768
2023-03-22T10:39:56.619Z,50.866753
2023-03-22T10:40:56.699Z,50.866787
2023-03-22T10:41:58.046Z,50.866756
2023-03-22T10:42:57.599Z,50.866772
2023-03-22T10:43:56.586Z,50.866756
2023-03-22T10:44:56.612Z,50.866779
2023-03-22T10:45:56.576Z,50.866737
2023-03-22T10:46:56.637Z,50.866737
2023-03-22T10:47:56.583Z,50.866714
2023-03-22T10:48:56.564Z,50.866680
2023-03-22T10:49:56.613Z,50.866734
2023-03-22T10:50:56.559Z,50.866772
2023-03-22T10:51:56.522Z,50.866791
2023-03-22T10:52:56.503Z,50.866730
2023-03-22T10:53:56.506Z,50.866714
2023-03-22T10:55:00.160Z,50.866726
2023-03-22T10:55:56.503Z,50.866726
2023-03-22T10:56:56.527Z,50.866692
2023-03-22T10:57:56.503Z,50.866688
2023-03-22T10:58:56.446Z,50.866707
2023-03-22T10:59:56.466Z,50.866707
2023-03-22T11:00:56.612Z,50.866692
2023-03-22T11:01:57.675Z,50.866734
2023-03-22T11:02:56.498Z,50.866753
2023-03-22T11:03:56.460Z,50.866745
2023-03-22T11:04:56.420Z,50.866779
2023-03-22T11:05:56.420Z,50.866791
2023-03-22T11:06:56.594Z,50.866768
2023-03-22T11:07:57.392Z,50.866745
2023-03-22T11:08:56.432Z,50.866737
2023-03-22T11:09:57.399Z,50.866764
2023-03-22T11:10:56.454Z,50.866806
2023-03-22T11:11:56.440Z,50.866783
2023-03-22T11:12:56.360Z,50.866772
2023-03-22T11:13:56.397Z,50.866764
2023-03-22T11:14:56.340Z,50.866772
2023-03-22T11:15:57.840Z,50.866795
2023-03-22T11:16:56.343Z,50.866798
2023-03-22T11:17:56.345Z,50.866844
2023-03-22T11:18:56.335Z,50.866810
2023-03-22T11:19:56.339Z,50.866840
2023-03-22T11:20:56.289Z,50.866802
2023-03-22T11:21:56.298Z,50.866814
2023-03-22T11:22:56.290Z,50.866844
2023-03-22T11:23:56.286Z,50.866840
2023-03-22T11:24:58.136Z,50.866802
2023-03-22T11:25:56.262Z,50.866787
2023-03-22T11:26:56.908Z,50.866821
2023-03-22T11:27:56.258Z,50.866779